Terminal Aerodrome Forecast
Issued by NWS Birmingham, AL

Home | Current Version | Previous Version | Text Only | Print | Product List | Glossary On
Versions: 1 2 3 4 5 6 7 8 9 10 11 12 13 14
196
FTUS44 KBMX 301139
TAFBHM
TAF
KBHM 301139Z 3012/0112 15012G22KT P6SM SCT015 BKN035
     FM301500 17019G26KT P6SM OVC050
     FM302100 19025G35KT 6SM -SHRA VCTS SCT015CB OVC025
     FM302200 19025G35KT 2SM TSRA SCT015CB OVC025
     FM010800 22007KT P6SM -RA OVC050=

USA.gov is the U.S. government's official web portal to all federal, state and local government web resources and services.